Pagrindinis puslapis
METAR-TAF:

METAR-TAF

Oro uostai :

Bermuda, Bermuda

platuma: 32-22N, ilguma: 064-41W, Aukštis: 6 m

Dabartinis oras

Ataskaita buvo paskelbta 26 minutes, ne 06:55 UTC
Vėjas 18 kt iš Šiaurės Rytų
Temperatūra 19°C
Drėgmė 68%
Slėgis 1023 hPa
Matomumas 10 km arba daugiau
Mažai debesys ne aukštis 3700 ft
Su prošvaistėmis ne aukštis 5800 ft

METAR: TXKF 250655Z 04018KT 9999 FEW037 BKN058 19/13 Q1023

Laikas: 03:21 (07:21 UTC)

Prognozė

Ataskaita buvo paskelbta 1 valandą ir 51 minutes, ne 05:30 UTC
Prognozė galioja nuo 25 metu 06 UTC su 26 metu 06 UTC
Vėjas 17 kt iš Šiaurės Rytų
Matomumas 10 km arba daugiau
Su prošvaistėmis ne aukštis 4500 ft

TAF: TXKF 250530Z 2506/2606 04017KT 9999 BKN045

Orai ataskaitas ir orų prognozės (METAR, TAF).

turimą stotys yra geltonos ir raudonos taškus žemėlapyje.

Perkelti pele per norėdami pamatyti stoties vardą.

Tada spustelėkite, norėdami matyti oro stebėjimo ir prognozės.

Norėdami pakeisti žemėlapį: spustelėkite ant žalios mygtukų su juodo kryžiaus žemyn,; žalią mygtuką su brūkšneliu, jei norite nutolinti; arba žalių rodyklių gretimoms žemėlapius.


METAR-TAF: